createdAt,value
2018-09-06T00:00:19.224Z,14.87
2018-09-06T00:01:19.244Z,14.77
2018-09-06T00:02:19.205Z,14.67
2018-09-06T00:03:19.188Z,14.78
2018-09-06T00:04:19.177Z,14.67
2018-09-06T00:05:19.162Z,14.71
2018-09-06T00:06:19.182Z,14.70
2018-09-06T00:07:19.146Z,14.74
2018-09-06T00:08:19.132Z,14.68
2018-09-06T00:09:19.128Z,14.63
2018-09-06T00:10:19.117Z,14.61
2018-09-06T00:11:19.142Z,14.66
2018-09-06T00:12:19.087Z,14.61
2018-09-06T00:13:19.089Z,14.52
2018-09-06T00:14:19.085Z,14.59
2018-09-06T00:15:19.061Z,14.63
2018-09-06T00:16:19.103Z,14.61
2018-09-06T00:17:19.037Z,14.61
2018-09-06T00:18:19.029Z,14.63
2018-09-06T00:19:19.026Z,14.71
2018-09-06T00:20:19.013Z,14.71
2018-09-06T00:21:19.029Z,14.77
2018-09-06T00:22:19.021Z,14.81
2018-09-06T00:23:18.975Z,14.79
2018-09-06T00:24:18.971Z,14.81
2018-09-06T00:25:18.951Z,14.74
2018-09-06T00:26:18.951Z,14.85
2018-09-06T00:27:18.975Z,14.78
2018-09-06T00:28:18.925Z,14.89
2018-09-06T00:29:18.906Z,14.86
2018-09-06T00:30:18.897Z,14.82
2018-09-06T00:31:18.887Z,14.90
2018-09-06T00:32:18.912Z,14.89
2018-09-06T00:33:18.863Z,14.79
2018-09-06T00:34:18.855Z,14.89
2018-09-06T00:35:18.843Z,14.82
2018-09-06T00:36:18.835Z,14.85
2018-09-06T00:37:18.855Z,14.90
2018-09-06T00:38:18.807Z,14.89
2018-09-06T00:39:18.800Z,14.82
2018-09-06T00:40:18.783Z,14.85
2018-09-06T00:41:18.783Z,14.90
2018-09-06T00:42:18.797Z,14.82
2018-09-06T00:43:18.785Z,14.82
2018-09-06T00:44:18.741Z,14.82
2018-09-06T00:45:18.725Z,14.77
2018-09-06T00:46:18.718Z,14.78
2018-09-06T00:47:18.698Z,14.62
2018-09-06T00:48:18.734Z,14.67
2018-09-06T00:49:18.678Z,14.62
2018-09-06T00:50:18.668Z,14.67
2018-09-06T00:51:18.657Z,14.63
2018-09-06T00:52:18.641Z,14.67
2018-09-06T00:53:18.672Z,14.59
2018-09-06T00:54:18.624Z,14.61
2018-09-06T00:55:18.609Z,14.63
2018-09-06T00:56:18.603Z,14.59
2018-09-06T00:57:18.590Z,14.38
2018-09-06T00:58:18.607Z,14.48
2018-09-06T00:59:18.563Z,14.37
2018-09-06T01:00:18.555Z,14.53
2018-09-06T01:01:18.550Z,14.41
2018-09-06T01:02:18.537Z,14.45
2018-09-06T01:03:18.560Z,14.40
2018-09-06T01:04:18.545Z,14.36
2018-09-06T01:05:18.517Z,14.34
2018-09-06T01:06:18.501Z,14.36
2018-09-06T01:07:18.483Z,14.40
2018-09-06T01:08:18.479Z,14.34
2018-09-06T01:09:18.488Z,14.37
2018-09-06T01:10:18.446Z,14.26
2018-09-06T01:11:18.441Z,14.30
2018-09-06T01:12:18.429Z,14.41
2018-09-06T01:13:18.419Z,14.41
2018-09-06T01:14:18.431Z,14.26
2018-09-06T01:15:18.399Z,14.22
2018-09-06T01:16:18.381Z,14.22
2018-09-06T01:17:18.367Z,14.26
2018-09-06T01:18:18.357Z,14.40
2018-09-06T01:19:18.374Z,14.38
2018-09-06T01:20:18.335Z,14.36
2018-09-06T01:21:18.318Z,14.41
2018-09-06T01:22:18.309Z,14.38
2018-09-06T01:23:18.303Z,14.40
2018-09-06T01:24:18.315Z,14.41
2018-09-06T01:25:18.279Z,14.36
2018-09-06T01:26:18.305Z,14.40
2018-09-06T01:27:18.252Z,14.40
2018-09-06T01:28:18.253Z,14.37
2018-09-06T01:29:18.227Z,14.34
2018-09-06T01:30:18.219Z,14.38
2018-09-06T01:31:18.247Z,14.40
2018-09-06T01:32:18.203Z,14.34
2018-09-06T01:33:18.185Z,14.38
2018-09-06T01:34:18.170Z,14.36
2018-09-06T01:35:18.167Z,14.34
2018-09-06T01:36:18.182Z,14.41
2018-09-06T01:37:18.141Z,14.25
2018-09-06T01:38:18.133Z,14.33
2018-09-06T01:39:18.115Z,14.28
2018-09-06T01:40:18.141Z,14.28
2018-09-06T01:41:18.093Z,14.26
2018-09-06T01:42:18.105Z,14.22
2018-09-06T01:43:18.087Z,14.18
2018-09-06T01:44:18.057Z,14.22
2018-09-06T01:45:18.095Z,14.20
2018-09-06T01:46:18.040Z,14.20
2018-09-06T01:47:18.059Z,14.20
2018-09-06T01:48:18.016Z,14.23
2018-09-06T01:49:18.018Z,14.20
2018-09-06T01:50:18.008Z,14.18
2018-09-06T01:51:18.024Z,14.18
2018-09-06T01:52:17.989Z,14.19
2018-09-06T01:53:17.969Z,14.12
2018-09-06T01:54:17.957Z,14.05
2018-09-06T01:55:17.950Z,14.12
2018-09-06T01:56:17.977Z,14.13
2018-09-06T01:57:17.925Z,14.08
2018-09-06T01:58:17.913Z,14.16
2018-09-06T01:59:17.906Z,14.04
2018-09-06T02:00:17.886Z,14.04
2018-09-06T02:01:17.918Z,14.12
2018-09-06T02:02:17.874Z,14.07
2018-09-06T02:03:17.856Z,14.07
2018-09-06T02:04:17.842Z,14.08
2018-09-06T02:05:17.841Z,13.98
2018-09-06T02:06:17.873Z,14.05
2018-09-06T02:07:17.816Z,14.00
2018-09-06T02:08:17.799Z,13.98
2018-09-06T02:09:17.793Z,13.97
2018-09-06T02:10:17.776Z,14.03
2018-09-06T02:11:17.812Z,14.04
2018-09-06T02:12:17.791Z,14.11
2018-09-06T02:13:17.752Z,14.04
2018-09-06T02:14:17.738Z,14.18
2018-09-06T02:15:17.724Z,14.18
2018-09-06T02:16:17.721Z,14.26
2018-09-06T02:17:17.727Z,14.22
2018-09-06T02:18:17.691Z,14.23
2018-09-06T02:19:17.674Z,14.25
2018-09-06T02:20:17.682Z,14.38
2018-09-06T02:21:17.645Z,14.36
2018-09-06T02:22:17.671Z,14.36
2018-09-06T02:23:17.655Z,14.38
2018-09-06T02:24:17.661Z,14.38
2018-09-06T02:25:17.631Z,14.40
2018-09-06T02:26:17.591Z,14.40
2018-09-06T02:27:17.582Z,14.43
2018-09-06T02:28:17.573Z,14.44
2018-09-06T02:29:17.585Z,14.45
2018-09-06T02:30:17.544Z,14.38
2018-09-06T02:31:17.539Z,14.49
2018-09-06T02:32:17.523Z,14.45
2018-09-06T02:33:17.512Z,14.44
2018-09-06T02:34:17.529Z,14.45
2018-09-06T02:35:17.495Z,14.45
2018-09-06T02:36:17.494Z,14.38
2018-09-06T02:37:17.476Z,14.43
2018-09-06T02:38:17.456Z,14.38
2018-09-06T02:39:17.475Z,14.43
2018-09-06T02:40:17.468Z,14.40
2018-09-06T02:41:17.417Z,14.40
2018-09-06T02:42:17.406Z,14.40
2018-09-06T02:43:17.399Z,14.41
2018-09-06T02:44:17.387Z,14.43
2018-09-06T02:45:17.410Z,14.41
2018-09-06T02:46:17.367Z,14.40
2018-09-06T02:47:17.360Z,14.36
2018-09-06T02:48:17.347Z,14.34
2018-09-06T02:49:17.335Z,14.40
2018-09-06T02:50:17.371Z,14.33
2018-09-06T02:51:17.308Z,14.40
2018-09-06T02:52:17.300Z,14.36
2018-09-06T02:53:17.291Z,14.34
2018-09-06T02:54:17.281Z,14.36
2018-09-06T02:55:17.307Z,14.36
2018-09-06T02:56:17.311Z,14.26
2018-09-06T02:57:17.257Z,14.23
2018-09-06T02:58:17.249Z,14.28
2018-09-06T02:59:17.229Z,14.28
2018-09-06T03:00:17.219Z,14.25
2018-09-06T03:01:17.237Z,14.25
2018-09-06T03:02:17.197Z,14.23
2018-09-06T03:03:17.183Z,14.19
2018-09-06T03:04:17.167Z,14.40
2018-09-06T03:05:17.165Z,14.38
2018-09-06T03:06:17.191Z,14.30
2018-09-06T03:07:17.146Z,14.25
2018-09-06T03:08:17.127Z,14.22
2018-09-06T03:09:17.119Z,14.28
2018-09-06T03:10:17.107Z,14.23
2018-09-06T03:11:17.139Z,14.22
2018-09-06T03:12:17.088Z,14.26
2018-09-06T03:13:17.071Z,14.23
2018-09-06T03:14:17.061Z,14.37
2018-09-06T03:15:17.165Z,14.33
2018-09-06T03:16:17.071Z,14.34
2018-09-06T03:17:17.028Z,14.37
2018-09-06T03:18:17.017Z,14.37
2018-09-06T03:19:17.003Z,14.41
2018-09-06T03:20:17.002Z,14.31
2018-09-06T03:21:17.015Z,14.38
2018-09-06T03:22:17.005Z,14.33
2018-09-06T03:23:16.958Z,14.40
2018-09-06T03:24:16.949Z,14.38
2018-09-06T03:25:16.923Z,14.36
2018-09-06T03:26:16.914Z,14.36
2018-09-06T03:27:16.933Z,14.41
2018-09-06T03:28:16.907Z,14.41
2018-09-06T03:29:16.894Z,14.38
2018-09-06T03:30:16.879Z,14.41
2018-09-06T03:31:16.860Z,14.44
2018-09-06T03:32:16.881Z,14.44
2018-09-06T03:33:16.837Z,14.41
2018-09-06T03:34:16.858Z,14.48
2018-09-06T03:35:16.819Z,14.44
2018-09-06T03:36:16.801Z,14.48
2018-09-06T03:37:16.827Z,14.38
2018-09-06T03:38:16.783Z,14.49
2018-09-06T03:39:16.778Z,14.45
2018-09-06T03:40:16.762Z,14.43
2018-09-06T03:41:16.753Z,14.44
2018-09-06T03:42:16.773Z,14.43
2018-09-06T03:43:16.727Z,14.44
2018-09-06T03:44:16.717Z,14.41
2018-09-06T03:45:16.698Z,14.38
2018-09-06T03:46:16.695Z,14.41
2018-09-06T03:47:16.713Z,14.48
2018-09-06T03:48:16.699Z,14.41
2018-09-06T03:49:16.665Z,14.36
2018-09-06T03:50:16.647Z,14.38
2018-09-06T03:51:16.635Z,14.40
2018-09-06T03:52:16.625Z,14.40
2018-09-06T03:53:16.639Z,14.38
2018-09-06T03:54:16.605Z,14.41
2018-09-06T03:55:16.591Z,14.40
2018-09-06T03:56:16.581Z,14.38
2018-09-06T03:57:16.576Z,14.31
2018-09-06T03:58:16.609Z,14.37
2018-09-06T03:59:16.553Z,14.44
2018-09-06T04:00:16.544Z,14.38
2018-09-06T04:01:16.540Z,14.51
2018-09-06T04:02:16.523Z,14.41
2018-09-06T04:03:16.540Z,14.45
2018-09-06T04:04:16.504Z,14.43
2018-09-06T04:05:16.522Z,14.38
2018-09-06T04:06:16.480Z,14.37
2018-09-06T04:07:16.473Z,14.38
2018-09-06T04:08:16.458Z,14.34
2018-09-06T04:09:16.446Z,14.36
2018-09-06T04:10:16.460Z,14.25
2018-09-06T04:11:16.422Z,14.25
2018-09-06T04:12:16.406Z,14.28
2018-09-06T04:13:16.401Z,14.34
2018-09-06T04:14:16.427Z,14.34
2018-09-06T04:15:16.376Z,14.38
2018-09-06T04:16:16.376Z,14.34
2018-09-06T04:17:16.356Z,14.36
2018-09-06T04:18:16.339Z,14.34
2018-09-06T04:19:16.372Z,14.36
2018-09-06T04:20:16.320Z,14.30
2018-09-06T04:21:16.338Z,14.36
2018-09-06T04:22:16.300Z,14.38
2018-09-06T04:23:16.282Z,14.40
2018-09-06T04:24:16.288Z,14.30
2018-09-06T04:25:16.260Z,14.37
2018-09-06T04:26:16.287Z,14.25
2018-09-06T04:27:16.242Z,14.23
2018-09-06T04:28:16.238Z,14.30
2018-09-06T04:29:16.205Z,14.28
2018-09-06T04:30:16.199Z,14.25
2018-09-06T04:31:16.215Z,14.23
2018-09-06T04:32:16.181Z,14.18
2018-09-06T04:33:16.169Z,14.23
2018-09-06T04:34:16.154Z,14.19
2018-09-06T04:35:16.148Z,14.19
2018-09-06T04:36:16.231Z,14.19
2018-09-06T04:37:16.161Z,14.20
2018-09-06T04:38:16.109Z,14.23
2018-09-06T04:39:16.099Z,14.11
2018-09-06T04:40:16.088Z,14.12
2018-09-06T04:41:16.073Z,14.11
2018-09-06T04:42:16.088Z,14.16
2018-09-06T04:43:16.056Z,14.07
2018-09-06T04:44:16.038Z,14.11
2018-09-06T04:45:16.040Z,14.16
2018-09-06T04:46:16.085Z,14.13
2018-09-06T04:47:16.004Z,14.07
2018-09-06T04:48:15.996Z,14.04
2018-09-06T04:49:15.989Z,14.04
2018-09-06T04:50:15.999Z,14.15
2018-09-06T04:51:15.998Z,14.08
2018-09-06T04:52:15.952Z,14.12
2018-09-06T04:53:15.939Z,14.05
2018-09-06T04:54:15.929Z,14.13
2018-09-06T04:55:15.979Z,14.07
2018-09-06T04:56:15.960Z,14.13
2018-09-06T04:57:15.902Z,14.22
2018-09-06T04:58:15.888Z,14.25
2018-09-06T04:59:15.872Z,14.23
2018-09-06T05:00:15.864Z,14.28
2018-09-06T05:01:15.884Z,14.30
2018-09-06T05:02:15.844Z,14.38
2018-09-06T05:03:15.885Z,14.37
2018-09-06T05:04:15.828Z,14.40
2018-09-06T05:05:15.828Z,14.41
2018-09-06T05:06:15.816Z,14.37
2018-09-06T05:07:15.798Z,14.43
2018-09-06T05:08:15.822Z,14.41
2018-09-06T05:09:15.777Z,14.48
2018-09-06T05:10:15.757Z,14.44
2018-09-06T05:11:15.754Z,14.45
2018-09-06T05:12:15.738Z,14.48
2018-09-06T05:13:15.764Z,14.44
2018-09-06T05:14:16.856Z,14.52
2018-09-06T05:15:15.723Z,14.59
2018-09-06T05:16:15.696Z,14.58
2018-09-06T05:17:15.682Z,14.59
2018-09-06T05:18:15.706Z,14.56
2018-09-06T05:19:15.652Z,14.52
2018-09-06T05:20:15.651Z,14.58
2018-09-06T05:21:15.629Z,14.58
2018-09-06T05:22:15.621Z,14.66
2018-09-06T05:23:15.633Z,14.62
2018-09-06T05:24:15.648Z,14.67
2018-09-06T05:25:15.587Z,14.73
2018-09-06T05:26:15.581Z,14.78
2018-09-06T05:27:15.567Z,14.82
2018-09-06T05:28:15.555Z,14.85
2018-09-06T05:29:15.583Z,14.90
2018-09-06T05:30:15.535Z,14.92
2018-09-06T05:31:15.519Z,14.92
2018-09-06T05:32:15.513Z,15.00
2018-09-06T05:33:15.506Z,14.92
2018-09-06T05:34:25.008Z,14.99
2018-09-06T05:35:16.632Z,15.04
2018-09-06T05:36:15.742Z,15.10
2018-09-06T05:37:15.462Z,15.10
2018-09-06T05:38:15.442Z,15.22
2018-09-06T05:39:15.463Z,15.23
2018-09-06T05:40:15.457Z,15.14
2018-09-06T05:41:15.413Z,15.12
2018-09-06T05:42:15.402Z,15.17
2018-09-06T05:43:15.398Z,15.12
2018-09-06T05:44:15.380Z,15.15
2018-09-06T05:45:15.410Z,15.14
2018-09-06T05:46:15.352Z,15.32
2018-09-06T05:47:15.385Z,15.23
2018-09-06T05:48:15.336Z,15.23
2018-09-06T05:49:15.323Z,15.25
2018-09-06T05:50:15.345Z,15.23
2018-09-06T05:51:15.330Z,15.32
2018-09-06T05:52:15.292Z,15.39
2018-09-06T05:53:15.279Z,15.36
2018-09-06T05:54:15.266Z,15.37
2018-09-06T05:55:15.263Z,15.39
2018-09-06T05:56:15.288Z,15.45
2018-09-06T05:57:15.239Z,15.47
2018-09-06T05:58:15.227Z,15.59
2018-09-06T05:59:15.207Z,15.54
2018-09-06T06:00:15.196Z,15.55
2018-09-06T06:01:15.219Z,15.67
2018-09-06T06:02:15.179Z,15.63
2018-09-06T06:03:15.161Z,15.65
2018-09-06T06:04:15.183Z,15.66
2018-09-06T06:05:15.176Z,15.67
2018-09-06T06:06:15.125Z,15.80
2018-09-06T06:07:15.151Z,15.75
2018-09-06T06:08:15.102Z,15.80
2018-09-06T06:09:15.092Z,15.85
2018-09-06T06:10:15.077Z,15.90
2018-09-06T06:11:15.095Z,15.94
2018-09-06T06:12:15.057Z,15.85
2018-09-06T06:13:15.086Z,15.98
2018-09-06T06:14:15.031Z,15.92
2018-09-06T06:15:15.023Z,16.02
2018-09-06T06:16:15.009Z,16.10
2018-09-06T06:17:15.000Z,16.16
2018-09-06T06:18:15.015Z,16.21
2018-09-06T06:19:14.988Z,16.29
2018-09-06T06:20:14.964Z,16.16
2018-09-06T06:21:14.953Z,16.25
2018-09-06T06:22:14.979Z,16.18
2018-09-06T06:23:14.935Z,16.16
2018-09-06T06:24:14.923Z,16.22
2018-09-06T06:25:14.911Z,16.31
2018-09-06T06:26:14.901Z,16.37
2018-09-06T06:27:14.937Z,16.36
2018-09-06T06:28:14.879Z,16.41
2018-09-06T06:29:14.863Z,16.40
2018-09-06T06:30:14.853Z,16.50
2018-09-06T06:31:14.841Z,16.49
2018-09-06T06:32:14.903Z,16.54
2018-09-06T06:33:14.821Z,16.68
2018-09-06T06:34:14.805Z,16.68
2018-09-06T06:35:14.805Z,16.72
2018-09-06T06:36:14.783Z,16.74
2018-09-06T06:37:14.824Z,16.76
2018-09-06T06:38:14.775Z,16.77
2018-09-06T06:39:14.757Z,16.83
2018-09-06T06:40:14.751Z,16.82
2018-09-06T06:41:14.737Z,16.87
2018-09-06T06:42:14.892Z,16.89
2018-09-06T06:43:14.716Z,16.97
2018-09-06T06:44:14.704Z,17.07
2018-09-06T06:45:14.693Z,17.12
2018-09-06T06:46:14.683Z,17.14
2018-09-06T06:47:14.708Z,17.27
2018-09-06T06:48:14.663Z,17.17
2018-09-06T06:49:14.641Z,17.16
2018-09-06T06:50:14.692Z,17.19
2018-09-06T06:51:14.625Z,17.14
2018-09-06T06:52:14.639Z,17.28
2018-09-06T06:53:14.633Z,17.34
2018-09-06T06:54:14.587Z,17.38
2018-09-06T06:55:14.573Z,17.35
2018-09-06T06:56:14.570Z,17.41
2018-09-06T06:57:14.562Z,17.41
2018-09-06T06:58:14.578Z,17.41
2018-09-06T06:59:14.564Z,17.37
2018-09-06T07:00:14.529Z,17.59
2018-09-06T07:01:14.509Z,17.46
2018-09-06T07:02:14.501Z,17.46
2018-09-06T07:03:14.491Z,17.46
2018-09-06T07:04:14.522Z,17.49
2018-09-06T07:05:14.473Z,17.52
2018-09-06T07:06:14.506Z,17.57
2018-09-06T07:07:14.542Z,17.53
2018-09-06T07:08:14.447Z,17.54
2018-09-06T07:09:14.442Z,17.54
2018-09-06T07:10:14.403Z,17.60
2018-09-06T07:11:14.393Z,17.66
2018-09-06T07:12:14.383Z,17.65
2018-09-06T07:13:14.372Z,17.69
2018-09-06T07:14:14.399Z,17.80
2018-09-06T07:15:14.348Z,17.82
2018-09-06T07:16:14.332Z,17.78
2018-09-06T07:17:14.328Z,17.76
2018-09-06T07:18:14.425Z,17.90
2018-09-06T07:19:14.346Z,17.97
2018-09-06T07:20:14.295Z,18.06
2018-09-06T07:21:14.281Z,18.06
2018-09-06T07:22:14.270Z,18.05
2018-09-06T07:23:14.258Z,18.05
2018-09-06T07:24:14.287Z,18.09
2018-09-06T07:25:14.237Z,18.15
2018-09-06T07:26:14.222Z,18.37
2018-09-06T07:27:14.215Z,18.43
2018-09-06T07:28:14.207Z,18.51
2018-09-06T07:29:14.229Z,18.60
2018-09-06T07:30:14.188Z,18.55
2018-09-06T07:31:14.165Z,18.60
2018-09-06T07:32:14.196Z,18.78
2018-09-06T07:33:14.141Z,18.85
2018-09-06T07:34:14.185Z,18.98
2018-09-06T07:35:14.234Z,18.97
2018-09-06T07:36:14.121Z,19.26
2018-09-06T07:37:14.149Z,19.22
2018-09-06T07:38:14.092Z,19.12
2018-09-06T07:39:14.096Z,19.09
2018-09-06T07:40:14.072Z,19.19
2018-09-06T07:41:14.071Z,19.27
2018-09-06T07:42:14.091Z,19.12
2018-09-06T07:43:14.036Z,19.04
2018-09-06T07:44:14.036Z,19.05
2018-09-06T07:45:14.034Z,19.30
2018-09-06T07:46:14.035Z,19.24
2018-09-06T07:47:14.000Z,19.27
2018-09-06T07:48:14.011Z,19.48
2018-09-06T07:49:13.977Z,19.39
2018-09-06T07:50:13.970Z,19.59
2018-09-06T07:51:13.999Z,19.62
2018-09-06T07:52:13.961Z,19.48
2018-09-06T07:53:13.941Z,19.37
2018-09-06T07:54:13.917Z,19.34
2018-09-06T07:55:13.906Z,19.63
2018-09-06T07:56:13.932Z,19.64
2018-09-06T07:57:13.892Z,19.48
2018-09-06T07:58:13.880Z,19.48
2018-09-06T07:59:13.911Z,19.57
2018-09-06T08:00:13.855Z,19.71
2018-09-06T08:01:13.844Z,19.52
2018-09-06T08:02:13.831Z,19.47
2018-09-06T08:03:13.821Z,19.41
2018-09-06T08:04:13.866Z,19.63
2018-09-06T08:05:13.825Z,19.66
2018-09-06T08:06:13.783Z,19.59
2018-09-06T08:07:13.779Z,19.77
2018-09-06T08:08:13.763Z,20.02
2018-09-06T08:09:13.804Z,20.02
2018-09-06T08:10:13.745Z,20.00
2018-09-06T08:11:13.728Z,20.07
2018-09-06T08:12:13.817Z,19.94
2018-09-06T08:13:13.699Z,19.93
2018-09-06T08:14:13.724Z,20.07
2018-09-06T08:15:13.735Z,20.08
2018-09-06T08:16:13.667Z,20.24
2018-09-06T08:17:13.657Z,20.08
2018-09-06T08:18:13.645Z,20.07
2018-09-06T08:19:13.638Z,20.11
2018-09-06T08:20:13.655Z,20.03
2018-09-06T08:21:13.617Z,20.00
2018-09-06T08:22:13.605Z,19.96
2018-09-06T08:23:13.589Z,20.36
2018-09-06T08:24:13.629Z,20.33
2018-09-06T08:25:13.589Z,20.68
2018-09-06T08:26:13.557Z,20.89
2018-09-06T08:27:13.541Z,21.00
2018-09-06T08:28:13.535Z,21.13
2018-09-06T08:29:13.552Z,21.14
2018-09-06T08:30:13.509Z,21.22
2018-09-06T08:31:13.613Z,21.25
2018-09-06T08:32:13.485Z,21.19
2018-09-06T08:33:13.491Z,21.19
2018-09-06T08:34:13.494Z,21.13
2018-09-06T08:35:13.450Z,20.98
2018-09-06T08:36:13.444Z,21.01
2018-09-06T08:37:13.427Z,20.88
2018-09-06T08:38:13.421Z,20.92
2018-09-06T08:39:13.441Z,20.89
2018-09-06T08:40:13.400Z,20.90
2018-09-06T08:41:13.390Z,21.07
2018-09-06T08:42:13.410Z,21.23
2018-09-06T08:43:13.364Z,21.28
2018-09-06T08:44:13.350Z,21.25
2018-09-06T08:45:13.416Z,21.41
2018-09-06T08:46:13.344Z,21.53
2018-09-06T08:47:13.369Z,21.45
2018-09-06T08:48:13.367Z,21.47
2018-09-06T08:49:13.304Z,21.51
2018-09-06T08:50:13.299Z,21.48
2018-09-06T08:51:13.375Z,21.74
2018-09-06T08:52:13.280Z,22.03
2018-09-06T08:53:13.302Z,22.28
2018-09-06T08:54:13.262Z,22.28
2018-09-06T08:55:13.243Z,22.21
2018-09-06T08:56:13.235Z,22.26
2018-09-06T08:57:13.222Z,22.33
2018-09-06T08:58:13.255Z,22.68
2018-09-06T08:59:13.195Z,22.78
2018-09-06T09:00:13.191Z,22.93
2018-09-06T09:01:13.187Z,23.13
2018-09-06T09:02:13.252Z,23.07
2018-09-06T09:03:13.244Z,22.98
2018-09-06T09:04:13.135Z,22.89
2018-09-06T09:05:13.129Z,22.84
2018-09-06T09:06:13.161Z,22.81
2018-09-06T09:07:13.106Z,22.83
2018-09-06T09:08:13.153Z,23.14
2018-09-06T09:09:13.081Z,23.51
2018-09-06T09:10:13.106Z,23.82
2018-09-06T09:11:13.066Z,24.66
2018-09-06T09:12:13.074Z,25.61
2018-09-06T09:13:13.103Z,25.81
2018-09-06T09:14:13.061Z,26.27
2018-09-06T09:15:13.025Z,26.29
2018-09-06T09:16:13.054Z,26.53
2018-09-06T09:17:12.989Z,26.96
2018-09-06T09:18:12.980Z,27.34
2018-09-06T09:19:13.076Z,27.48
2018-09-06T09:20:12.953Z,27.73
2018-09-06T09:21:13.257Z,27.67
2018-09-06T09:22:13.228Z,27.91
2018-09-06T09:23:13.089Z,28.28
2018-09-06T09:24:13.713Z,28.52
2018-09-06T09:25:13.304Z,28.97
2018-09-06T09:26:12.935Z,29.07
2018-09-06T09:27:12.885Z,28.25
2018-09-06T09:28:12.885Z,27.53
2018-09-06T09:29:12.853Z,27.91
2018-09-06T09:30:12.883Z,28.33
2018-09-06T09:31:13.111Z,28.45
2018-09-06T09:32:12.842Z,28.04
2018-09-06T09:33:13.240Z,27.28
2018-09-06T09:34:12.839Z,27.68
2018-09-06T09:35:12.933Z,27.38
2018-09-06T09:36:12.792Z,28.06
2018-09-06T09:37:12.793Z,28.60
2018-09-06T09:38:12.768Z,28.96
2018-09-06T09:39:12.758Z,29.73
2018-09-06T09:40:12.793Z,29.40
2018-09-06T09:41:12.740Z,29.40
2018-09-06T09:42:12.726Z,29.94
2018-09-06T09:43:12.782Z,29.83
2018-09-06T09:44:12.706Z,28.47
2018-09-06T09:45:12.727Z,28.84
2018-09-06T09:47:39.177Z,29.16
2018-09-06T09:48:39.129Z,29.84
2018-09-06T09:49:39.143Z,29.74
2018-09-06T09:51:07.935Z,28.33
2018-09-06T09:52:07.894Z,29.00
2018-09-06T09:53:07.880Z,29.49
2018-09-06T09:54:08.048Z,30.18
2018-09-06T09:55:07.861Z,30.21
2018-09-06T09:56:07.845Z,30.33
2018-09-06T09:57:07.918Z,30.65
2018-09-06T09:58:07.823Z,30.88
2018-09-06T09:59:07.855Z,30.96
2018-09-06T10:00:07.793Z,30.70
2018-09-06T10:01:07.815Z,30.78
2018-09-06T10:02:07.770Z,31.30
2018-09-06T10:03:07.758Z,31.47
2018-09-06T10:04:07.781Z,31.77
2018-09-06T10:05:07.739Z,32.12
2018-09-06T10:06:07.723Z,32.31
2018-09-06T10:07:07.721Z,32.31
2018-09-06T10:08:07.755Z,31.86
2018-09-06T10:09:07.695Z,32.07
2018-09-06T10:10:07.691Z,32.04
2018-09-06T10:11:07.677Z,32.12
2018-09-06T10:12:07.667Z,31.22
2018-09-06T10:13:07.700Z,31.70
2018-09-06T10:14:07.645Z,32.37
2018-09-06T10:15:07.638Z,32.98
2018-09-06T10:16:07.623Z,33.28
2018-09-06T10:17:07.617Z,33.13
2018-09-06T10:18:07.663Z,32.67
2018-09-06T10:19:07.594Z,32.66
2018-09-06T10:20:07.585Z,31.81
2018-09-06T10:21:07.574Z,31.73
2018-09-06T10:22:07.577Z,32.29
2018-09-06T10:23:07.585Z,32.56
2018-09-06T10:24:07.538Z,32.72
2018-09-06T10:25:07.533Z,32.85
2018-09-06T10:26:07.518Z,32.67
2018-09-06T10:27:07.517Z,32.82
2018-09-06T10:28:07.549Z,32.54
2018-09-06T10:29:07.487Z,32.90
2018-09-06T10:30:07.475Z,32.42
2018-09-06T10:31:07.477Z,32.16
2018-09-06T10:32:07.465Z,31.69
2018-09-06T10:33:07.519Z,31.82
2018-09-06T10:34:07.445Z,32.04
2018-09-06T10:35:07.435Z,32.17
2018-09-06T10:36:07.421Z,32.49
2018-09-06T10:37:07.422Z,32.75
2018-09-06T10:38:07.471Z,32.83
2018-09-06T10:39:07.391Z,33.16
2018-09-06T10:40:07.475Z,33.08
2018-09-06T10:41:07.367Z,32.88
2018-09-06T10:42:07.359Z,33.00
2018-09-06T10:43:07.403Z,32.97
2018-09-06T10:44:07.345Z,33.01
2018-09-06T10:45:07.328Z,32.90
2018-09-06T10:46:07.327Z,32.95
2018-09-06T10:47:07.298Z,33.01
2018-09-06T10:48:07.332Z,33.22
2018-09-06T10:49:07.280Z,33.28
2018-09-06T10:50:07.271Z,33.38
2018-09-06T10:51:07.263Z,33.33
2018-09-06T10:52:07.288Z,33.53
2018-09-06T10:53:07.240Z,33.33
2018-09-06T10:54:07.265Z,33.58
2018-09-06T10:55:07.211Z,33.85
2018-09-06T10:56:07.207Z,34.09
2018-09-06T10:57:07.204Z,34.02
2018-09-06T10:58:07.189Z,34.38
2018-09-06T10:59:07.212Z,34.75
2018-09-06T11:00:07.160Z,33.13
2018-09-06T11:01:07.159Z,33.05
2018-09-06T11:02:07.145Z,32.09
2018-09-06T11:03:07.194Z,31.51
2018-09-06T11:04:07.193Z,31.93
2018-09-06T11:05:07.118Z,32.38
2018-09-06T11:06:07.116Z,30.83
2018-09-06T11:07:07.100Z,31.45
2018-09-06T11:08:07.103Z,32.30
2018-09-06T11:09:07.119Z,31.77
2018-09-06T11:10:07.070Z,30.52
2018-09-06T11:11:07.059Z,31.66
2018-09-06T11:12:07.055Z,32.56
2018-09-06T11:13:07.046Z,33.15
2018-09-06T11:14:07.072Z,33.57
2018-09-06T11:15:07.072Z,33.47
2018-09-06T11:16:07.007Z,34.03
2018-09-06T11:17:06.995Z,34.07
2018-09-06T11:18:07.014Z,34.06
2018-09-06T11:19:06.978Z,34.09
2018-09-06T11:20:07.003Z,34.44
2018-09-06T11:21:07.007Z,34.70
2018-09-06T11:22:07.083Z,34.94
2018-09-06T11:23:06.937Z,35.03
2018-09-06T11:24:06.936Z,35.12
2018-09-06T11:25:06.965Z,35.26
2018-09-06T11:26:06.909Z,34.53
2018-09-06T11:27:06.893Z,33.89
2018-09-06T11:28:06.885Z,33.66
2018-09-06T11:29:06.885Z,33.73
2018-09-06T11:30:06.911Z,33.75
2018-09-06T11:31:06.850Z,33.20
2018-09-06T11:32:06.841Z,33.39
2018-09-06T11:33:06.840Z,33.12
2018-09-06T11:34:06.820Z,31.17
2018-09-06T11:35:06.836Z,31.81
2018-09-06T11:36:06.793Z,32.38
2018-09-06T11:37:06.776Z,32.97
2018-09-06T11:38:06.773Z,33.17
2018-09-06T11:39:06.757Z,33.73
2018-09-06T11:40:06.903Z,34.11
2018-09-06T11:41:06.747Z,34.09
2018-09-06T11:42:06.725Z,34.16
2018-09-06T11:43:06.745Z,33.40
2018-09-06T11:44:06.711Z,32.48
2018-09-06T11:45:06.735Z,32.09
2018-09-06T11:46:06.687Z,32.20
2018-09-06T11:47:06.802Z,32.05
2018-09-06T11:48:06.674Z,30.49
2018-09-06T11:49:06.659Z,30.43
2018-09-06T11:50:06.698Z,30.21
2018-09-06T11:51:06.687Z,29.37
2018-09-06T11:52:06.626Z,31.20
2018-09-06T11:53:06.619Z,32.35
2018-09-06T11:54:06.602Z,33.00
2018-09-06T11:55:06.643Z,32.71
2018-09-06T11:56:06.586Z,32.16
2018-09-06T11:57:06.573Z,32.60
2018-09-06T11:58:06.558Z,32.85
2018-09-06T11:59:06.557Z,31.30
2018-09-06T12:00:06.584Z,32.45
2018-09-06T12:01:06.526Z,33.23
2018-09-06T12:02:06.573Z,32.09
2018-09-06T12:03:06.510Z,30.29
2018-09-06T12:04:06.502Z,29.06
2018-09-06T12:05:06.522Z,28.12
2018-09-06T12:06:06.511Z,27.38
2018-09-06T12:07:06.478Z,28.34
2018-09-06T12:08:06.463Z,29.64
2018-09-06T12:09:06.459Z,30.74
2018-09-06T12:10:06.485Z,29.43
2018-09-06T12:11:06.469Z,30.33
2018-09-06T12:12:06.427Z,30.76
2018-09-06T12:13:06.415Z,31.42
2018-09-06T12:14:06.409Z,30.95
2018-09-06T12:15:06.386Z,29.79
2018-09-06T12:16:06.414Z,30.17
2018-09-06T12:17:06.371Z,29.98
2018-09-06T12:18:06.353Z,30.56
2018-09-06T12:19:06.381Z,30.92
2018-09-06T12:20:06.337Z,30.96
2018-09-06T12:21:06.329Z,31.02
2018-09-06T12:22:06.319Z,31.50
2018-09-06T12:23:06.316Z,29.81
2018-09-06T12:24:06.333Z,29.59
2018-09-06T12:25:06.285Z,29.05
2018-09-06T12:26:06.299Z,30.71
2018-09-06T12:27:06.265Z,31.67
2018-09-06T12:28:06.261Z,32.31
2018-09-06T12:29:06.269Z,31.41
2018-09-06T12:30:06.229Z,30.35
2018-09-06T12:31:06.223Z,30.58
2018-09-06T12:32:06.266Z,31.89
2018-09-06T12:33:06.232Z,30.44
2018-09-06T12:34:06.222Z,31.45
2018-09-06T12:35:06.178Z,32.30
2018-09-06T12:36:06.171Z,32.88
2018-09-06T12:37:06.155Z,33.23
2018-09-06T12:38:06.202Z,33.58
2018-09-06T12:39:06.189Z,33.45
2018-09-06T12:40:06.232Z,32.57
2018-09-06T12:41:06.111Z,32.20
2018-09-06T12:42:06.099Z,31.87
2018-09-06T12:43:06.139Z,30.73
2018-09-06T12:44:06.086Z,30.99
2018-09-06T12:45:06.103Z,31.86
2018-09-06T12:46:06.057Z,32.26
2018-09-06T12:47:06.040Z,32.34
2018-09-06T12:48:06.027Z,32.48
2018-09-06T12:49:06.036Z,32.98
2018-09-06T12:50:06.063Z,32.90
2018-09-06T12:51:05.998Z,31.98
2018-09-06T12:52:06.031Z,30.98
2018-09-06T12:53:06.035Z,29.67
2018-09-06T12:54:05.966Z,30.48